sensor_id;sensor_type;location;lat;lon;timestamp;P1;durP1;ratioP1;P2;durP2;ratioP2
68479;SDS011;55469;48.934;12.050;2022-11-02T00:01:28;4.83;;;4.17;;
68479;SDS011;55469;48.934;12.050;2022-11-02T00:04:00;5.20;;;4.18;;
68479;SDS011;55469;48.934;12.050;2022-11-02T00:06:26;5.05;;;4.55;;
68479;SDS011;55469;48.934;12.050;2022-11-02T00:08:52;5.57;;;4.25;;
68479;SDS011;55469;48.934;12.050;2022-11-02T00:11:17;4.80;;;4.25;;
68479;SDS011;55469;48.934;12.050;2022-11-02T00:13:43;4.57;;;4.15;;
68479;SDS011;55469;48.934;12.050;2022-11-02T00:16:10;5.43;;;4.45;;
68479;SDS011;55469;48.934;12.050;2022-11-02T00:18:38;5.10;;;4.40;;
68479;SDS011;55469;48.934;12.050;2022-11-02T00:21:05;4.70;;;4.20;;
68479;SDS011;55469;48.934;12.050;2022-11-02T00:23:31;5.03;;;4.50;;
68479;SDS011;55469;48.934;12.050;2022-11-02T00:25:57;5.15;;;4.63;;
68479;SDS011;55469;48.934;12.050;2022-11-02T00:28:23;4.32;;;3.90;;
68479;SDS011;55469;48.934;12.050;2022-11-02T00:30:49;5.00;;;4.07;;
68479;SDS011;55469;48.934;12.050;2022-11-02T00:33:14;5.03;;;4.18;;
68479;SDS011;55469;48.934;12.050;2022-11-02T00:35:40;4.43;;;4.00;;
68479;SDS011;55469;48.934;12.050;2022-11-02T00:38:06;4.68;;;4.22;;
68479;SDS011;55469;48.934;12.050;2022-11-02T00:40:32;4.78;;;4.20;;
68479;SDS011;55469;48.934;12.050;2022-11-02T00:42:58;5.03;;;4.10;;
68479;SDS011;55469;48.934;12.050;2022-11-02T00:45:24;4.18;;;3.75;;
68479;SDS011;55469;48.934;12.050;2022-11-02T00:47:49;4.32;;;3.90;;
68479;SDS011;55469;48.934;12.050;2022-11-02T00:50:15;4.47;;;4.05;;
68479;SDS011;55469;48.934;12.050;2022-11-02T00:52:41;4.63;;;3.80;;
68479;SDS011;55469;48.934;12.050;2022-11-02T00:55:07;3.97;;;3.58;;
68479;SDS011;55469;48.934;12.050;2022-11-02T00:57:35;4.20;;;3.80;;
68479;SDS011;55469;48.934;12.050;2022-11-02T01:00:03;4.20;;;3.75;;
68479;SDS011;55469;48.934;12.050;2022-11-02T01:02:31;4.28;;;3.85;;
68479;SDS011;55469;48.934;12.050;2022-11-02T01:04:58;4.30;;;3.90;;
68479;SDS011;55469;48.934;12.050;2022-11-02T01:07:24;4.32;;;3.92;;
68479;SDS011;55469;48.934;12.050;2022-11-02T01:09:51;4.28;;;3.88;;
68479;SDS011;55469;48.934;12.050;2022-11-02T01:12:17;4.30;;;3.90;;
68479;SDS011;55469;48.934;12.050;2022-11-02T01:14:44;3.92;;;3.53;;
68479;SDS011;55469;48.934;12.050;2022-11-02T01:17:11;4.15;;;3.70;;
68479;SDS011;55469;48.934;12.050;2022-11-02T01:19:37;3.90;;;3.53;;
68479;SDS011;55469;48.934;12.050;2022-11-02T01:22:02;4.00;;;3.60;;
68479;SDS011;55469;48.934;12.050;2022-11-02T01:24:28;4.35;;;3.50;;
68479;SDS011;55469;48.934;12.050;2022-11-02T01:26:54;4.25;;;3.53;;
68479;SDS011;55469;48.934;12.050;2022-11-02T01:29:20;4.25;;;3.60;;
68479;SDS011;55469;48.934;12.050;2022-11-02T01:31:45;3.85;;;3.50;;
68479;SDS011;55469;48.934;12.050;2022-11-02T01:34:12;3.95;;;3.58;;
68479;SDS011;55469;48.934;12.050;2022-11-02T01:36:39;4.43;;;3.58;;
68479;SDS011;55469;48.934;12.050;2022-11-02T01:39:05;4.45;;;3.60;;
68479;SDS011;55469;48.934;12.050;2022-11-02T01:41:31;4.10;;;3.60;;
68479;SDS011;55469;48.934;12.050;2022-11-02T01:43:57;3.97;;;3.53;;
68479;SDS011;55469;48.934;12.050;2022-11-02T01:46:37;4.43;;;3.75;;
68479;SDS011;55469;48.934;12.050;2022-11-02T01:49:08;4.13;;;3.60;;
68479;SDS011;55469;48.934;12.050;2022-11-02T01:51:42;4.20;;;3.60;;
68479;SDS011;55469;48.934;12.050;2022-11-02T01:54:34;4.32;;;3.67;;
68479;SDS011;55469;48.934;12.050;2022-11-02T01:57:09;3.83;;;3.42;;
68479;SDS011;55469;48.934;12.050;2022-11-02T01:59:54;3.78;;;3.40;;
68479;SDS011;55469;48.934;12.050;2022-11-02T02:02:29;3.58;;;3.28;;
68479;SDS011;55469;48.934;12.050;2022-11-02T02:05:02;3.80;;;3.40;;
68479;SDS011;55469;48.934;12.050;2022-11-02T02:07:32;4.00;;;3.60;;
68479;SDS011;55469;48.934;12.050;2022-11-02T02:10:01;3.50;;;3.20;;
68479;SDS011;55469;48.934;12.050;2022-11-02T02:12:28;3.80;;;3.40;;
68479;SDS011;55469;48.934;12.050;2022-11-02T02:14:55;3.88;;;3.53;;
68479;SDS011;55469;48.934;12.050;2022-11-02T02:28:51;3.60;;;3.25;;
68479;SDS011;55469;48.934;12.050;2022-11-02T02:31:25;4.00;;;3.60;;
68479;SDS011;55469;48.934;12.050;2022-11-02T02:37:02;3.47;;;2.88;;
68479;SDS011;55469;48.934;12.050;2022-11-02T02:39:45;4.10;;;3.55;;
68479;SDS011;55469;48.934;12.050;2022-11-02T02:42:37;3.92;;;3.53;;
68479;SDS011;55469;48.934;12.050;2022-11-02T02:45:38;3.70;;;3.40;;
68479;SDS011;55469;48.934;12.050;2022-11-02T02:48:18;3.63;;;3.28;;
68479;SDS011;55469;48.934;12.050;2022-11-02T02:50:47;4.53;;;3.90;;
68479;SDS011;55469;48.934;12.050;2022-11-02T02:53:15;3.35;;;3.05;;
68479;SDS011;55469;48.934;12.050;2022-11-02T02:58:20;3.90;;;3.42;;
68479;SDS011;55469;48.934;12.050;2022-11-02T03:01:10;3.88;;;3.47;;
68479;SDS011;55469;48.934;12.050;2022-11-02T03:03:39;3.80;;;3.40;;
68479;SDS011;55469;48.934;12.050;2022-11-02T03:08:52;3.70;;;3.40;;
68479;SDS011;55469;48.934;12.050;2022-11-02T03:11:46;3.83;;;3.28;;
68479;SDS011;55469;48.934;12.050;2022-11-02T03:17:45;3.90;;;3.50;;
68479;SDS011;55469;48.934;12.050;2022-11-02T03:20:46;3.78;;;3.40;;
68479;SDS011;55469;48.934;12.050;2022-11-02T03:23:17;4.00;;;3.50;;
68479;SDS011;55469;48.934;12.050;2022-11-02T03:26:05;4.10;;;3.50;;
68479;SDS011;55469;48.934;12.050;2022-11-02T03:28:59;3.63;;;3.22;;
68479;SDS011;55469;48.934;12.050;2022-11-02T03:31:32;3.80;;;3.38;;
68479;SDS011;55469;48.934;12.050;2022-11-02T03:34:19;4.10;;;3.60;;
68479;SDS011;55469;48.934;12.050;2022-11-02T03:37:01;4.20;;;3.80;;
68479;SDS011;55469;48.934;12.050;2022-11-02T03:39:52;4.22;;;3.70;;
68479;SDS011;55469;48.934;12.050;2022-11-02T03:42:26;3.75;;;3.35;;
68479;SDS011;55469;48.934;12.050;2022-11-02T03:45:03;3.67;;;3.28;;
68479;SDS011;55469;48.934;12.050;2022-11-02T03:47:46;4.00;;;3.25;;
68479;SDS011;55469;48.934;12.050;2022-11-02T03:50:19;3.92;;;3.45;;
68479;SDS011;55469;48.934;12.050;2022-11-02T03:52:47;3.97;;;3.53;;
68479;SDS011;55469;48.934;12.050;2022-11-02T03:55:25;4.40;;;3.70;;
68479;SDS011;55469;48.934;12.050;2022-11-02T03:57:57;3.88;;;3.42;;
68479;SDS011;55469;48.934;12.050;2022-11-02T04:00:23;4.40;;;3.47;;
68479;SDS011;55469;48.934;12.050;2022-11-02T04:02:58;4.05;;;3.40;;
68479;SDS011;55469;48.934;12.050;2022-11-02T04:05:35;4.22;;;3.60;;
68479;SDS011;55469;48.934;12.050;2022-11-02T04:08:01;3.72;;;3.33;;
68479;SDS011;55469;48.934;12.050;2022-11-02T04:10:49;4.32;;;3.65;;
68479;SDS011;55469;48.934;12.050;2022-11-02T04:13:35;3.53;;;3.20;;
68479;SDS011;55469;48.934;12.050;2022-11-02T04:16:20;3.50;;;3.17;;
68479;SDS011;55469;48.934;12.050;2022-11-02T04:18:46;4.25;;;3.47;;
68479;SDS011;55469;48.934;12.050;2022-11-02T04:21:31;3.60;;;3.30;;
68479;SDS011;55469;48.934;12.050;2022-11-02T04:23:56;4.68;;;3.50;;
68479;SDS011;55469;48.934;12.050;2022-11-02T04:26:41;4.45;;;3.78;;
68479;SDS011;55469;48.934;12.050;2022-11-02T04:29:07;3.95;;;3.60;;
68479;SDS011;55469;48.934;12.050;2022-11-02T04:31:33;4.63;;;3.42;;
68479;SDS011;55469;48.934;12.050;2022-11-02T04:33:59;3.90;;;3.40;;
68479;SDS011;55469;48.934;12.050;2022-11-02T04:36:27;3.45;;;3.15;;
68479;SDS011;55469;48.934;12.050;2022-11-02T04:38:54;4.95;;;3.60;;
68479;SDS011;55469;48.934;12.050;2022-11-02T04:41:20;3.60;;;3.05;;
68479;SDS011;55469;48.934;12.050;2022-11-02T04:44:06;4.20;;;3.40;;
68479;SDS011;55469;48.934;12.050;2022-11-02T04:46:34;3.65;;;3.30;;
68479;SDS011;55469;48.934;12.050;2022-11-02T04:49:01;3.78;;;3.17;;
68479;SDS011;55469;48.934;12.050;2022-11-02T04:51:28;3.35;;;3.05;;
68479;SDS011;55469;48.934;12.050;2022-11-02T04:53:55;3.58;;;3.28;;
68479;SDS011;55469;48.934;12.050;2022-11-02T04:56:22;3.75;;;3.45;;
68479;SDS011;55469;48.934;12.050;2022-11-02T04:58:51;3.72;;;3.05;;
68479;SDS011;55469;48.934;12.050;2022-11-02T05:01:20;3.38;;;3.00;;
68479;SDS011;55469;48.934;12.050;2022-11-02T05:03:47;3.53;;;3.10;;
68479;SDS011;55469;48.934;12.050;2022-11-02T05:06:15;3.30;;;3.00;;
68479;SDS011;55469;48.934;12.050;2022-11-02T05:08:45;3.63;;;3.25;;
68479;SDS011;55469;48.934;12.050;2022-11-02T05:11:11;3.20;;;2.90;;
68479;SDS011;55469;48.934;12.050;2022-11-02T05:13:37;3.70;;;3.00;;
68479;SDS011;55469;48.934;12.050;2022-11-02T05:16:04;3.47;;;3.10;;
68479;SDS011;55469;48.934;12.050;2022-11-02T05:18:31;3.40;;;3.10;;
68479;SDS011;55469;48.934;12.050;2022-11-02T05:20:59;3.63;;;3.03;;
68479;SDS011;55469;48.934;12.050;2022-11-02T05:23:26;2.92;;;2.70;;
68479;SDS011;55469;48.934;12.050;2022-11-02T05:28:24;3.08;;;2.78;;
68479;SDS011;55469;48.934;12.050;2022-11-02T05:30:51;4.20;;;3.05;;
68479;SDS011;55469;48.934;12.050;2022-11-02T05:33:17;3.00;;;2.70;;
68479;SDS011;55469;48.934;12.050;2022-11-02T05:35:43;3.20;;;2.90;;
68479;SDS011;55469;48.934;12.050;2022-11-02T05:38:09;2.95;;;2.72;;
68479;SDS011;55469;48.934;12.050;2022-11-02T05:40:35;3.58;;;2.92;;
68479;SDS011;55469;48.934;12.050;2022-11-02T05:43:03;3.10;;;2.80;;
68479;SDS011;55469;48.934;12.050;2022-11-02T05:45:29;3.05;;;2.75;;
68479;SDS011;55469;48.934;12.050;2022-11-02T05:47:55;3.35;;;2.92;;
68479;SDS011;55469;48.934;12.050;2022-11-02T05:50:20;3.67;;;3.20;;
68479;SDS011;55469;48.934;12.050;2022-11-02T05:52:46;3.55;;;3.20;;
68479;SDS011;55469;48.934;12.050;2022-11-02T05:55:12;2.88;;;2.67;;
68479;SDS011;55469;48.934;12.050;2022-11-02T05:57:38;3.63;;;3.13;;
68479;SDS011;55469;48.934;12.050;2022-11-02T06:00:04;3.20;;;2.83;;
68479;SDS011;55469;48.934;12.050;2022-11-02T06:02:34;3.38;;;3.00;;
68479;SDS011;55469;48.934;12.050;2022-11-02T06:05:00;3.50;;;3.20;;
68479;SDS011;55469;48.934;12.050;2022-11-02T06:07:26;4.57;;;3.80;;
68479;SDS011;55469;48.934;12.050;2022-11-02T06:09:52;3.97;;;3.50;;
68479;SDS011;55469;48.934;12.050;2022-11-02T06:12:17;5.03;;;3.70;;
68479;SDS011;55469;48.934;12.050;2022-11-02T06:14:43;3.60;;;3.30;;
68479;SDS011;55469;48.934;12.050;2022-11-02T06:17:09;3.72;;;3.35;;
68479;SDS011;55469;48.934;12.050;2022-11-02T06:19:35;4.43;;;3.70;;
68479;SDS011;55469;48.934;12.050;2022-11-02T06:22:00;5.35;;;3.80;;
68479;SDS011;55469;48.934;12.050;2022-11-02T06:24:26;3.72;;;3.30;;
68479;SDS011;55469;48.934;12.050;2022-11-02T06:26:52;4.35;;;3.30;;
68479;SDS011;55469;48.934;12.050;2022-11-02T06:29:17;4.32;;;3.67;;
68479;SDS011;55469;48.934;12.050;2022-11-02T06:31:43;3.55;;;2.95;;
68479;SDS011;55469;48.934;12.050;2022-11-02T06:34:09;4.07;;;3.10;;
68479;SDS011;55469;48.934;12.050;2022-11-02T06:36:34;4.28;;;3.63;;
68479;SDS011;55469;48.934;12.050;2022-11-02T06:39:01;4.28;;;3.67;;
68479;SDS011;55469;48.934;12.050;2022-11-02T06:41:26;3.85;;;3.45;;
68479;SDS011;55469;48.934;12.050;2022-11-02T06:43:52;4.72;;;3.63;;
68479;SDS011;55469;48.934;12.050;2022-11-02T06:46:18;4.05;;;3.20;;
68479;SDS011;55469;48.934;12.050;2022-11-02T06:48:45;3.90;;;3.47;;
68479;SDS011;55469;48.934;12.050;2022-11-02T06:51:11;4.70;;;3.55;;
68479;SDS011;55469;48.934;12.050;2022-11-02T06:53:37;3.88;;;3.47;;
68479;SDS011;55469;48.934;12.050;2022-11-02T06:56:03;4.03;;;3.28;;
68479;SDS011;55469;48.934;12.050;2022-11-02T06:58:28;4.15;;;3.65;;
68479;SDS011;55469;48.934;12.050;2022-11-02T07:01:02;4.25;;;3.45;;
68479;SDS011;55469;48.934;12.050;2022-11-02T07:03:33;4.47;;;3.47;;
68479;SDS011;55469;48.934;12.050;2022-11-02T07:06:00;4.68;;;3.90;;
68479;SDS011;55469;48.934;12.050;2022-11-02T07:08:26;5.10;;;3.97;;
68479;SDS011;55469;48.934;12.050;2022-11-02T07:10:53;4.53;;;3.17;;
68479;SDS011;55469;48.934;12.050;2022-11-02T07:13:19;4.45;;;3.58;;
68479;SDS011;55469;48.934;12.050;2022-11-02T07:15:45;5.38;;;3.50;;
68479;SDS011;55469;48.934;12.050;2022-11-02T07:18:11;4.85;;;3.80;;
68479;SDS011;55469;48.934;12.050;2022-11-02T07:20:37;6.35;;;4.45;;
68479;SDS011;55469;48.934;12.050;2022-11-02T07:23:03;5.03;;;3.47;;
68479;SDS011;55469;48.934;12.050;2022-11-02T07:25:30;5.90;;;4.28;;
68479;SDS011;55469;48.934;12.050;2022-11-02T07:27:57;6.03;;;4.63;;
68479;SDS011;55469;48.934;12.050;2022-11-02T07:30:26;4.97;;;3.90;;
68479;SDS011;55469;48.934;12.050;2022-11-02T07:32:53;5.95;;;4.05;;
68479;SDS011;55469;48.934;12.050;2022-11-02T07:35:19;5.53;;;3.97;;
68479;SDS011;55469;48.934;12.050;2022-11-02T07:37:53;11.27;;;6.20;;
68479;SDS011;55469;48.934;12.050;2022-11-02T07:40:23;6.45;;;4.40;;
68479;SDS011;55469;48.934;12.050;2022-11-02T07:42:49;5.60;;;4.15;;
68479;SDS011;55469;48.934;12.050;2022-11-02T07:45:17;6.53;;;4.40;;
68479;SDS011;55469;48.934;12.050;2022-11-02T07:47:47;6.40;;;4.30;;
68479;SDS011;55469;48.934;12.050;2022-11-02T07:50:14;9.35;;;5.82;;
68479;SDS011;55469;48.934;12.050;2022-11-02T07:52:47;6.88;;;4.70;;
68479;SDS011;55469;48.934;12.050;2022-11-02T07:55:22;5.03;;;3.88;;
68479;SDS011;55469;48.934;12.050;2022-11-02T07:57:57;6.00;;;4.20;;
68479;SDS011;55469;48.934;12.050;2022-11-02T08:00:34;7.15;;;5.20;;
68479;SDS011;55469;48.934;12.050;2022-11-02T08:03:03;5.57;;;4.22;;
68479;SDS011;55469;48.934;12.050;2022-11-02T08:05:32;8.95;;;5.75;;
68479;SDS011;55469;48.934;12.050;2022-11-02T08:08:01;8.75;;;5.32;;
68479;SDS011;55469;48.934;12.050;2022-11-02T08:10:34;7.28;;;4.35;;
68479;SDS011;55469;48.934;12.050;2022-11-02T08:13:01;6.78;;;4.80;;
68479;SDS011;55469;48.934;12.050;2022-11-02T08:15:27;9.43;;;6.05;;
68479;SDS011;55469;48.934;12.050;2022-11-02T08:18:00;7.60;;;5.40;;
68479;SDS011;55469;48.934;12.050;2022-11-02T08:20:46;8.32;;;4.90;;
68479;SDS011;55469;48.934;12.050;2022-11-02T08:23:16;8.95;;;5.15;;
68479;SDS011;55469;48.934;12.050;2022-11-02T08:25:45;6.65;;;4.60;;
68479;SDS011;55469;48.934;12.050;2022-11-02T08:28:16;8.75;;;4.70;;
68479;SDS011;55469;48.934;12.050;2022-11-02T08:31:00;7.03;;;4.35;;
68479;SDS011;55469;48.934;12.050;2022-11-02T08:33:25;7.43;;;4.65;;
68479;SDS011;55469;48.934;12.050;2022-11-02T08:35:51;6.88;;;4.47;;
68479;SDS011;55469;48.934;12.050;2022-11-02T08:38:17;5.57;;;4.43;;
68479;SDS011;55469;48.934;12.050;2022-11-02T08:40:46;6.18;;;4.78;;
68479;SDS011;55469;48.934;12.050;2022-11-02T08:43:13;7.28;;;4.70;;
68479;SDS011;55469;48.934;12.050;2022-11-02T08:45:41;8.52;;;5.20;;
68479;SDS011;55469;48.934;12.050;2022-11-02T08:48:08;7.38;;;4.80;;
68479;SDS011;55469;48.934;12.050;2022-11-02T08:50:34;7.50;;;5.05;;
68479;SDS011;55469;48.934;12.050;2022-11-02T08:53:00;6.38;;;4.88;;
68479;SDS011;55469;48.934;12.050;2022-11-02T08:55:26;8.63;;;5.20;;
68479;SDS011;55469;48.934;12.050;2022-11-02T08:57:53;8.43;;;5.43;;
68479;SDS011;55469;48.934;12.050;2022-11-02T09:00:21;7.45;;;5.25;;
68479;SDS011;55469;48.934;12.050;2022-11-02T09:02:59;8.38;;;5.50;;
68479;SDS011;55469;48.934;12.050;2022-11-02T09:05:31;8.27;;;4.70;;
68479;SDS011;55469;48.934;12.050;2022-11-02T09:08:00;8.82;;;5.65;;
68479;SDS011;55469;48.934;12.050;2022-11-02T09:10:30;8.45;;;5.45;;
68479;SDS011;55469;48.934;12.050;2022-11-02T09:12:58;8.88;;;5.82;;
68479;SDS011;55469;48.934;12.050;2022-11-02T09:15:26;8.77;;;5.47;;
68479;SDS011;55469;48.934;12.050;2022-11-02T09:17:52;7.47;;;5.38;;
68479;SDS011;55469;48.934;12.050;2022-11-02T09:20:19;8.23;;;5.20;;
68479;SDS011;55469;48.934;12.050;2022-11-02T09:22:45;8.77;;;5.10;;
68479;SDS011;55469;48.934;12.050;2022-11-02T09:25:12;8.52;;;5.55;;
68479;SDS011;55469;48.934;12.050;2022-11-02T09:27:39;10.63;;;5.53;;
68479;SDS011;55469;48.934;12.050;2022-11-02T09:30:07;9.27;;;5.70;;
68479;SDS011;55469;48.934;12.050;2022-11-02T09:32:34;7.30;;;5.10;;
68479;SDS011;55469;48.934;12.050;2022-11-02T09:35:00;9.35;;;5.22;;
68479;SDS011;55469;48.934;12.050;2022-11-02T09:37:35;7.85;;;4.90;;
68479;SDS011;55469;48.934;12.050;2022-11-02T09:40:01;7.38;;;5.07;;
68479;SDS011;55469;48.934;12.050;2022-11-02T09:45:22;7.95;;;5.40;;
68479;SDS011;55469;48.934;12.050;2022-11-02T09:50:29;8.60;;;5.45;;
68479;SDS011;55469;48.934;12.050;2022-11-02T09:53:21;7.80;;;5.32;;
68479;SDS011;55469;48.934;12.050;2022-11-02T09:56:06;8.05;;;5.32;;
68479;SDS011;55469;48.934;12.050;2022-11-02T09:58:38;7.80;;;5.10;;
68479;SDS011;55469;48.934;12.050;2022-11-02T10:01:09;6.57;;;4.65;;
68479;SDS011;55469;48.934;12.050;2022-11-02T10:04:01;7.20;;;4.82;;
68479;SDS011;55469;48.934;12.050;2022-11-02T10:06:42;8.07;;;5.03;;
68479;SDS011;55469;48.934;12.050;2022-11-02T10:09:25;7.75;;;5.15;;
68479;SDS011;55469;48.934;12.050;2022-11-02T10:12:02;8.40;;;5.35;;
68479;SDS011;55469;48.934;12.050;2022-11-02T10:15:16;8.98;;;5.40;;
68479;SDS011;55469;48.934;12.050;2022-11-02T10:17:55;7.03;;;4.95;;
68479;SDS011;55469;48.934;12.050;2022-11-02T10:20:29;8.60;;;5.03;;
68479;SDS011;55469;48.934;12.050;2022-11-02T10:23:03;8.45;;;5.22;;
68479;SDS011;55469;48.934;12.050;2022-11-02T10:25:32;7.63;;;4.63;;
68479;SDS011;55469;48.934;12.050;2022-11-02T10:28:08;7.30;;;4.78;;
68479;SDS011;55469;48.934;12.050;2022-11-02T10:30:39;7.53;;;5.00;;
68479;SDS011;55469;48.934;12.050;2022-11-02T10:33:15;8.57;;;5.03;;
68479;SDS011;55469;48.934;12.050;2022-11-02T10:47:43;7.25;;;5.05;;
68479;SDS011;55469;48.934;12.050;2022-11-02T10:53:18;7.32;;;4.63;;
68479;SDS011;55469;48.934;12.050;2022-11-02T10:58:28;6.07;;;4.65;;
68479;SDS011;55469;48.934;12.050;2022-11-02T11:01:07;6.90;;;4.97;;
68479;SDS011;55469;48.934;12.050;2022-11-02T11:06:43;7.72;;;4.75;;
68479;SDS011;55469;48.934;12.050;2022-11-02T11:09:19;7.45;;;4.57;;
68479;SDS011;55469;48.934;12.050;2022-11-02T11:12:11;6.95;;;5.13;;
68479;SDS011;55469;48.934;12.050;2022-11-02T11:15:05;7.97;;;5.10;;
68479;SDS011;55469;48.934;12.050;2022-11-02T11:17:32;6.65;;;4.55;;
68479;SDS011;55469;48.934;12.050;2022-11-02T11:20:00;7.93;;;5.38;;
68479;SDS011;55469;48.934;12.050;2022-11-02T11:27:49;8.40;;;5.20;;
68479;SDS011;55469;48.934;12.050;2022-11-02T11:30:36;7.60;;;5.22;;
68479;SDS011;55469;48.934;12.050;2022-11-02T11:33:03;7.10;;;5.07;;
68479;SDS011;55469;48.934;12.050;2022-11-02T11:35:31;7.60;;;5.43;;
68479;SDS011;55469;48.934;12.050;2022-11-02T11:38:14;8.75;;;4.88;;
68479;SDS011;55469;48.934;12.050;2022-11-02T11:40:48;6.57;;;4.68;;
68479;SDS011;55469;48.934;12.050;2022-11-02T11:43:20;5.90;;;4.15;;
68479;SDS011;55469;48.934;12.050;2022-11-02T11:45:57;5.40;;;4.07;;
68479;SDS011;55469;48.934;12.050;2022-11-02T11:48:39;7.28;;;5.13;;
68479;SDS011;55469;48.934;12.050;2022-11-02T11:54:31;7.75;;;4.35;;
68479;SDS011;55469;48.934;12.050;2022-11-02T11:56:57;6.13;;;4.80;;
68479;SDS011;55469;48.934;12.050;2022-11-02T11:59:49;7.10;;;4.43;;
68479;SDS011;55469;48.934;12.050;2022-11-02T12:02:29;6.30;;;4.82;;
68479;SDS011;55469;48.934;12.050;2022-11-02T12:05:01;6.38;;;4.38;;
68479;SDS011;55469;48.934;12.050;2022-11-02T12:22:17;5.72;;;4.10;;
68479;SDS011;55469;48.934;12.050;2022-11-02T12:30:56;6.35;;;4.28;;
68479;SDS011;55469;48.934;12.050;2022-11-02T12:42:11;6.13;;;4.30;;
68479;SDS011;55469;48.934;12.050;2022-11-02T12:47:58;5.38;;;3.88;;
68479;SDS011;55469;48.934;12.050;2022-11-02T12:56:06;6.43;;;4.50;;
68479;SDS011;55469;48.934;12.050;2022-11-02T12:58:40;4.35;;;3.65;;
68479;SDS011;55469;48.934;12.050;2022-11-02T13:03:49;5.35;;;4.18;;
68479;SDS011;55469;48.934;12.050;2022-11-02T13:06:34;5.03;;;4.00;;
68479;SDS011;55469;48.934;12.050;2022-11-02T13:09:12;5.35;;;3.72;;
68479;SDS011;55469;48.934;12.050;2022-11-02T13:12:13;6.15;;;4.07;;
68479;SDS011;55469;48.934;12.050;2022-11-02T13:14:46;4.78;;;3.78;;
68479;SDS011;55469;48.934;12.050;2022-11-02T13:17:19;5.60;;;3.95;;
68479;SDS011;55469;48.934;12.050;2022-11-02T13:20:04;4.78;;;3.78;;
68479;SDS011;55469;48.934;12.050;2022-11-02T13:22:42;5.90;;;4.30;;
68479;SDS011;55469;48.934;12.050;2022-11-02T13:25:19;5.38;;;4.18;;
68479;SDS011;55469;48.934;12.050;2022-11-02T13:27:52;4.43;;;3.75;;
68479;SDS011;55469;48.934;12.050;2022-11-02T13:30:22;5.03;;;3.75;;
68479;SDS011;55469;48.934;12.050;2022-11-02T13:32:57;5.10;;;3.63;;
68479;SDS011;55469;48.934;12.050;2022-11-02T13:35:33;4.97;;;3.75;;
68479;SDS011;55469;48.934;12.050;2022-11-02T13:40:43;4.70;;;3.65;;
68479;SDS011;55469;48.934;12.050;2022-11-02T13:43:31;5.05;;;3.58;;
68479;SDS011;55469;48.934;12.050;2022-11-02T13:46:19;4.38;;;3.72;;
68479;SDS011;55469;48.934;12.050;2022-11-02T13:49:13;4.45;;;3.40;;
68479;SDS011;55469;48.934;12.050;2022-11-02T13:51:55;4.50;;;3.38;;
68479;SDS011;55469;48.934;12.050;2022-11-02T13:54:29;4.55;;;3.40;;
68479;SDS011;55469;48.934;12.050;2022-11-02T13:57:02;6.07;;;3.63;;
68479;SDS011;55469;48.934;12.050;2022-11-02T13:59:29;4.53;;;3.30;;
68479;SDS011;55469;48.934;12.050;2022-11-02T14:02:01;5.05;;;3.60;;
68479;SDS011;55469;48.934;12.050;2022-11-02T14:04:28;4.75;;;3.50;;
68479;SDS011;55469;48.934;12.050;2022-11-02T14:10:06;5.10;;;3.30;;
68479;SDS011;55469;48.934;12.050;2022-11-02T14:12:46;3.53;;;2.95;;
68479;SDS011;55469;48.934;12.050;2022-11-02T14:23:26;4.35;;;3.22;;
68479;SDS011;55469;48.934;12.050;2022-11-02T14:28:31;3.30;;;2.90;;
68479;SDS011;55469;48.934;12.050;2022-11-02T14:37:18;4.00;;;2.55;;
68479;SDS011;55469;48.934;12.050;2022-11-02T14:48:12;3.25;;;2.60;;
68479;SDS011;55469;48.934;12.050;2022-11-02T14:50:43;3.03;;;2.67;;
68479;SDS011;55469;48.934;12.050;2022-11-02T14:53:26;3.70;;;2.72;;
68479;SDS011;55469;48.934;12.050;2022-11-02T14:55:56;4.13;;;2.78;;
68479;SDS011;55469;48.934;12.050;2022-11-02T14:58:23;3.17;;;2.88;;
68479;SDS011;55469;48.934;12.050;2022-11-02T15:01:15;3.50;;;2.72;;
68479;SDS011;55469;48.934;12.050;2022-11-02T15:03:42;5.10;;;2.80;;
68479;SDS011;55469;48.934;12.050;2022-11-02T15:08:37;4.97;;;2.63;;
68479;SDS011;55469;48.934;12.050;2022-11-02T15:16:59;3.05;;;2.60;;
68479;SDS011;55469;48.934;12.050;2022-11-02T15:19:37;2.60;;;2.38;;
68479;SDS011;55469;48.934;12.050;2022-11-02T15:25:05;3.72;;;3.03;;
68479;SDS011;55469;48.934;12.050;2022-11-02T15:27:44;3.72;;;2.72;;
68479;SDS011;55469;48.934;12.050;2022-11-02T15:30:13;5.70;;;2.03;;
68479;SDS011;55469;48.934;12.050;2022-11-02T15:32:46;3.95;;;2.00;;
68479;SDS011;55469;48.934;12.050;2022-11-02T15:35:19;3.03;;;1.95;;
68479;SDS011;55469;48.934;12.050;2022-11-02T15:37:49;4.93;;;2.33;;
68479;SDS011;55469;48.934;12.050;2022-11-02T15:41:07;3.15;;;2.30;;
68479;SDS011;55469;48.934;12.050;2022-11-02T15:49:40;3.28;;;2.20;;
68479;SDS011;55469;48.934;12.050;2022-11-02T16:01:42;3.30;;;2.17;;
68479;SDS011;55469;48.934;12.050;2022-11-02T16:04:09;2.50;;;2.20;;
68479;SDS011;55469;48.934;12.050;2022-11-02T16:06:45;3.53;;;2.03;;
68479;SDS011;55469;48.934;12.050;2022-11-02T16:09:24;3.15;;;2.50;;
68479;SDS011;55469;48.934;12.050;2022-11-02T16:12:38;3.53;;;2.15;;
68479;SDS011;55469;48.934;12.050;2022-11-02T16:17:27;3.05;;;2.17;;
68479;SDS011;55469;48.934;12.050;2022-11-02T16:25:38;2.90;;;2.28;;
68479;SDS011;55469;48.934;12.050;2022-11-02T16:28:20;3.92;;;2.10;;
68479;SDS011;55469;48.934;12.050;2022-11-02T16:36:22;2.83;;;2.28;;
68479;SDS011;55469;48.934;12.050;2022-11-02T16:38:58;3.55;;;2.20;;
68479;SDS011;55469;48.934;12.050;2022-11-02T16:41:29;2.85;;;2.25;;
68479;SDS011;55469;48.934;12.050;2022-11-02T16:43:57;2.72;;;2.15;;
68479;SDS011;55469;48.934;12.050;2022-11-02T16:46:41;2.17;;;1.98;;
68479;SDS011;55469;48.934;12.050;2022-11-02T16:49:21;2.72;;;2.00;;
68479;SDS011;55469;48.934;12.050;2022-11-02T16:51:50;2.70;;;1.90;;
68479;SDS011;55469;48.934;12.050;2022-11-02T16:59:44;2.90;;;1.98;;
68479;SDS011;55469;48.934;12.050;2022-11-02T17:02:28;3.10;;;2.38;;
68479;SDS011;55469;48.934;12.050;2022-11-02T17:04:59;2.33;;;2.05;;
68479;SDS011;55469;48.934;12.050;2022-11-02T17:07:35;2.20;;;1.75;;
68479;SDS011;55469;48.934;12.050;2022-11-02T17:10:05;4.13;;;2.30;;
68479;SDS011;55469;48.934;12.050;2022-11-02T17:12:39;3.47;;;2.35;;
68479;SDS011;55469;48.934;12.050;2022-11-02T17:15:21;2.90;;;1.90;;
68479;SDS011;55469;48.934;12.050;2022-11-02T17:20:33;2.60;;;1.90;;
68479;SDS011;55469;48.934;12.050;2022-11-02T17:23:02;3.17;;;2.10;;
68479;SDS011;55469;48.934;12.050;2022-11-02T17:25:32;2.35;;;1.92;;
68479;SDS011;55469;48.934;12.050;2022-11-02T17:28:25;2.72;;;1.95;;
68479;SDS011;55469;48.934;12.050;2022-11-02T17:30:59;2.78;;;1.80;;
68479;SDS011;55469;48.934;12.050;2022-11-02T17:33:26;2.78;;;1.92;;
68479;SDS011;55469;48.934;12.050;2022-11-02T17:36:05;2.50;;;1.98;;
68479;SDS011;55469;48.934;12.050;2022-11-02T17:38:32;2.15;;;1.73;;
68479;SDS011;55469;48.934;12.050;2022-11-02T17:40:58;2.10;;;1.88;;
68479;SDS011;55469;48.934;12.050;2022-11-02T17:43:25;2.97;;;1.80;;
68479;SDS011;55469;48.934;12.050;2022-11-02T17:45:55;2.78;;;1.80;;
68479;SDS011;55469;48.934;12.050;2022-11-02T17:48:22;2.88;;;2.10;;
68479;SDS011;55469;48.934;12.050;2022-11-02T17:50:51;2.35;;;2.08;;
68479;SDS011;55469;48.934;12.050;2022-11-02T17:53:18;2.63;;;1.90;;
68479;SDS011;55469;48.934;12.050;2022-11-02T17:55:44;2.50;;;1.92;;
68479;SDS011;55469;48.934;12.050;2022-11-02T17:58:10;2.00;;;1.63;;
68479;SDS011;55469;48.934;12.050;2022-11-02T18:00:37;2.13;;;1.70;;
68479;SDS011;55469;48.934;12.050;2022-11-02T18:03:03;2.80;;;2.10;;